sensor_id;sensor_type;location;lat;lon;timestamp;temperature;humidity
24412;DHT22;12544;46.760;15.942;2023-07-31T00:01:46;16.90;99.90
24412;DHT22;12544;46.760;15.942;2023-07-31T00:04:12;16.90;99.90
24412;DHT22;12544;46.760;15.942;2023-07-31T00:06:38;17.00;99.90
24412;DHT22;12544;46.760;15.942;2023-07-31T00:09:03;17.20;99.90
24412;DHT22;12544;46.760;15.942;2023-07-31T00:11:29;17.20;99.90
24412;DHT22;12544;46.760;15.942;2023-07-31T00:13:54;17.40;99.90
24412;DHT22;12544;46.760;15.942;2023-07-31T00:16:20;17.50;99.90
24412;DHT22;12544;46.760;15.942;2023-07-31T00:18:48;17.60;99.90
24412;DHT22;12544;46.760;15.942;2023-07-31T00:21:13;17.60;99.90
24412;DHT22;12544;46.760;15.942;2023-07-31T00:23:39;17.50;99.90
24412;DHT22;12544;46.760;15.942;2023-07-31T00:26:04;17.30;99.90
24412;DHT22;12544;46.760;15.942;2023-07-31T00:28:30;17.20;99.90
24412;DHT22;12544;46.760;15.942;2023-07-31T00:30:55;17.10;99.90
24412;DHT22;12544;46.760;15.942;2023-07-31T00:33:21;17.20;99.90
24412;DHT22;12544;46.760;15.942;2023-07-31T00:35:48;17.30;99.90
24412;DHT22;12544;46.760;15.942;2023-07-31T00:38:14;17.40;99.90
24412;DHT22;12544;46.760;15.942;2023-07-31T00:40:40;17.50;99.90
24412;DHT22;12544;46.760;15.942;2023-07-31T00:43:06;17.50;99.90
24412;DHT22;12544;46.760;15.942;2023-07-31T00:45:32;17.40;99.90
24412;DHT22;12544;46.760;15.942;2023-07-31T00:47:58;17.30;99.90
24412;DHT22;12544;46.760;15.942;2023-07-31T00:50:27;17.30;99.90
24412;DHT22;12544;46.760;15.942;2023-07-31T00:52:53;17.20;99.90
24412;DHT22;12544;46.760;15.942;2023-07-31T00:55:19;17.10;99.90
24412;DHT22;12544;46.760;15.942;2023-07-31T00:57:45;17.00;99.90
24412;DHT22;12544;46.760;15.942;2023-07-31T01:00:11;17.00;99.90
24412;DHT22;12544;46.760;15.942;2023-07-31T01:02:37;17.00;99.90
24412;DHT22;12544;46.760;15.942;2023-07-31T01:05:03;16.90;99.90
24412;DHT22;12544;46.760;15.942;2023-07-31T01:07:45;16.90;99.90
24412;DHT22;12544;46.760;15.942;2023-07-31T01:10:20;16.90;99.90
24412;DHT22;12544;46.760;15.942;2023-07-31T01:12:49;16.90;99.90
24412;DHT22;12544;46.760;15.942;2023-07-31T01:15:15;16.80;99.90
24412;DHT22;12544;46.760;15.942;2023-07-31T01:17:43;16.80;99.90
24412;DHT22;12544;46.760;15.942;2023-07-31T01:20:16;16.70;99.90
24412;DHT22;12544;46.760;15.942;2023-07-31T01:28:05;16.60;99.90
24412;DHT22;12544;46.760;15.942;2023-07-31T01:30:34;16.70;99.90
24412;DHT22;12544;46.760;15.942;2023-07-31T01:33:03;16.60;99.90
24412;DHT22;12544;46.760;15.942;2023-07-31T01:35:37;16.60;99.90
24412;DHT22;12544;46.760;15.942;2023-07-31T01:38:04;16.60;99.90
24412;DHT22;12544;46.760;15.942;2023-07-31T01:40:30;16.60;99.90
24412;DHT22;12544;46.760;15.942;2023-07-31T01:42:55;16.60;99.90
24412;DHT22;12544;46.760;15.942;2023-07-31T01:45:21;16.60;99.90
24412;DHT22;12544;46.760;15.942;2023-07-31T01:47:46;16.70;99.90
24412;DHT22;12544;46.760;15.942;2023-07-31T01:50:12;16.70;99.90
24412;DHT22;12544;46.760;15.942;2023-07-31T01:52:38;16.60;99.90
24412;DHT22;12544;46.760;15.942;2023-07-31T01:55:04;16.70;99.90
24412;DHT22;12544;46.760;15.942;2023-07-31T01:57:29;16.70;99.90
24412;DHT22;12544;46.760;15.942;2023-07-31T01:59:55;16.70;99.90
24412;DHT22;12544;46.760;15.942;2023-07-31T02:02:21;16.70;99.90
24412;DHT22;12544;46.760;15.942;2023-07-31T02:04:48;16.70;99.90
24412;DHT22;12544;46.760;15.942;2023-07-31T02:07:14;16.60;99.90
24412;DHT22;12544;46.760;15.942;2023-07-31T02:09:39;16.50;99.90
24412;DHT22;12544;46.760;15.942;2023-07-31T02:12:05;16.40;99.90
24412;DHT22;12544;46.760;15.942;2023-07-31T02:14:31;16.40;99.90
24412;DHT22;12544;46.760;15.942;2023-07-31T02:16:57;16.40;99.90
24412;DHT22;12544;46.760;15.942;2023-07-31T02:19:22;16.30;99.90
24412;DHT22;12544;46.760;15.942;2023-07-31T02:21:48;16.30;99.90
24412;DHT22;12544;46.760;15.942;2023-07-31T02:24:13;16.30;99.90
24412;DHT22;12544;46.760;15.942;2023-07-31T02:26:39;16.30;99.90
24412;DHT22;12544;46.760;15.942;2023-07-31T02:29:05;16.30;99.90
24412;DHT22;12544;46.760;15.942;2023-07-31T02:31:31;16.30;99.90
24412;DHT22;12544;46.760;15.942;2023-07-31T02:33:56;16.30;99.90
24412;DHT22;12544;46.760;15.942;2023-07-31T02:36:22;16.40;99.90
24412;DHT22;12544;46.760;15.942;2023-07-31T02:38:47;16.30;99.90
24412;DHT22;12544;46.760;15.942;2023-07-31T02:41:13;16.30;99.90
24412;DHT22;12544;46.760;15.942;2023-07-31T02:43:38;16.40;99.90
24412;DHT22;12544;46.760;15.942;2023-07-31T02:46:04;16.40;99.90
24412;DHT22;12544;46.760;15.942;2023-07-31T02:48:30;16.40;99.90
24412;DHT22;12544;46.760;15.942;2023-07-31T02:50:55;16.30;99.90
24412;DHT22;12544;46.760;15.942;2023-07-31T02:53:21;16.30;99.90
24412;DHT22;12544;46.760;15.942;2023-07-31T02:55:48;16.20;99.90
24412;DHT22;12544;46.760;15.942;2023-07-31T02:58:14;16.20;99.90
24412;DHT22;12544;46.760;15.942;2023-07-31T03:00:43;16.20;99.90
24412;DHT22;12544;46.760;15.942;2023-07-31T03:03:09;16.20;99.90
24412;DHT22;12544;46.760;15.942;2023-07-31T03:05:34;16.10;99.90
24412;DHT22;12544;46.760;15.942;2023-07-31T03:08:01;16.10;99.90
24412;DHT22;12544;46.760;15.942;2023-07-31T03:10:27;16.10;99.90
24412;DHT22;12544;46.760;15.942;2023-07-31T03:12:52;16.10;99.90
24412;DHT22;12544;46.760;15.942;2023-07-31T03:15:18;16.10;99.90
24412;DHT22;12544;46.760;15.942;2023-07-31T03:17:43;16.10;99.90
24412;DHT22;12544;46.760;15.942;2023-07-31T03:20:21;16.00;99.90
24412;DHT22;12544;46.760;15.942;2023-07-31T03:22:47;16.10;99.90
24412;DHT22;12544;46.760;15.942;2023-07-31T03:25:13;16.10;99.90
24412;DHT22;12544;46.760;15.942;2023-07-31T03:27:39;16.20;99.90
24412;DHT22;12544;46.760;15.942;2023-07-31T03:30:05;16.20;99.90
24412;DHT22;12544;46.760;15.942;2023-07-31T03:32:31;16.20;99.90
24412;DHT22;12544;46.760;15.942;2023-07-31T03:34:57;16.30;99.90
24412;DHT22;12544;46.760;15.942;2023-07-31T03:37:23;16.30;99.90
24412;DHT22;12544;46.760;15.942;2023-07-31T03:39:48;16.30;99.90
24412;DHT22;12544;46.760;15.942;2023-07-31T03:42:14;16.30;99.90
24412;DHT22;12544;46.760;15.942;2023-07-31T03:44:40;16.30;99.90
24412;DHT22;12544;46.760;15.942;2023-07-31T03:47:05;16.20;99.90
24412;DHT22;12544;46.760;15.942;2023-07-31T03:49:31;16.10;99.90
24412;DHT22;12544;46.760;15.942;2023-07-31T03:51:57;16.10;99.90
24412;DHT22;12544;46.760;15.942;2023-07-31T03:54:22;16.10;99.90
24412;DHT22;12544;46.760;15.942;2023-07-31T03:56:48;16.00;99.90
24412;DHT22;12544;46.760;15.942;2023-07-31T03:59:13;16.00;99.90
24412;DHT22;12544;46.760;15.942;2023-07-31T04:01:39;16.00;99.90
24412;DHT22;12544;46.760;15.942;2023-07-31T04:04:05;16.00;99.90
24412;DHT22;12544;46.760;15.942;2023-07-31T04:06:30;16.10;99.90
24412;DHT22;12544;46.760;15.942;2023-07-31T04:08:56;16.20;99.90
24412;DHT22;12544;46.760;15.942;2023-07-31T04:11:23;16.10;99.90
24412;DHT22;12544;46.760;15.942;2023-07-31T04:13:48;16.00;99.90
24412;DHT22;12544;46.760;15.942;2023-07-31T04:16:14;16.00;99.90
24412;DHT22;12544;46.760;15.942;2023-07-31T04:18:40;16.00;99.90
24412;DHT22;12544;46.760;15.942;2023-07-31T04:21:05;16.00;99.90
24412;DHT22;12544;46.760;15.942;2023-07-31T04:23:31;16.00;99.90
24412;DHT22;12544;46.760;15.942;2023-07-31T04:25:56;16.00;99.90
24412;DHT22;12544;46.760;15.942;2023-07-31T04:28:22;16.00;99.90
24412;DHT22;12544;46.760;15.942;2023-07-31T04:30:48;16.00;99.90
24412;DHT22;12544;46.760;15.942;2023-07-31T04:33:17;16.00;99.90
24412;DHT22;12544;46.760;15.942;2023-07-31T04:35:51;15.90;99.90
24412;DHT22;12544;46.760;15.942;2023-07-31T04:38:18;15.90;99.90
24412;DHT22;12544;46.760;15.942;2023-07-31T04:40:44;15.90;99.90
24412;DHT22;12544;46.760;15.942;2023-07-31T04:43:10;16.00;99.90
24412;DHT22;12544;46.760;15.942;2023-07-31T04:45:36;16.00;99.90
24412;DHT22;12544;46.760;15.942;2023-07-31T04:48:01;16.10;99.90
24412;DHT22;12544;46.760;15.942;2023-07-31T04:50:58;16.10;99.90
24412;DHT22;12544;46.760;15.942;2023-07-31T04:53:23;16.10;99.90
24412;DHT22;12544;46.760;15.942;2023-07-31T04:55:49;16.20;99.90
24412;DHT22;12544;46.760;15.942;2023-07-31T04:58:14;16.20;99.90
24412;DHT22;12544;46.760;15.942;2023-07-31T05:00:40;16.30;99.90
24412;DHT22;12544;46.760;15.942;2023-07-31T05:03:05;16.30;99.90
24412;DHT22;12544;46.760;15.942;2023-07-31T05:05:32;16.30;99.90
24412;DHT22;12544;46.760;15.942;2023-07-31T05:07:57;16.30;99.90
24412;DHT22;12544;46.760;15.942;2023-07-31T05:10:23;16.30;99.90
24412;DHT22;12544;46.760;15.942;2023-07-31T05:12:48;16.40;99.90
24412;DHT22;12544;46.760;15.942;2023-07-31T05:15:14;16.40;99.90
24412;DHT22;12544;46.760;15.942;2023-07-31T05:17:40;16.50;99.90
24412;DHT22;12544;46.760;15.942;2023-07-31T05:20:06;16.50;99.90
24412;DHT22;12544;46.760;15.942;2023-07-31T05:22:32;16.50;99.90
24412;DHT22;12544;46.760;15.942;2023-07-31T05:24:57;16.50;99.90
24412;DHT22;12544;46.760;15.942;2023-07-31T05:27:23;16.50;99.90
24412;DHT22;12544;46.760;15.942;2023-07-31T05:29:48;16.60;99.90
24412;DHT22;12544;46.760;15.942;2023-07-31T05:32:14;16.70;99.90
24412;DHT22;12544;46.760;15.942;2023-07-31T05:34:40;16.80;99.90
24412;DHT22;12544;46.760;15.942;2023-07-31T05:37:05;16.80;99.90
24412;DHT22;12544;46.760;15.942;2023-07-31T05:39:31;16.90;99.90
24412;DHT22;12544;46.760;15.942;2023-07-31T05:41:57;17.00;99.90
24412;DHT22;12544;46.760;15.942;2023-07-31T05:44:22;17.10;99.90
24412;DHT22;12544;46.760;15.942;2023-07-31T05:46:48;17.20;99.90
24412;DHT22;12544;46.760;15.942;2023-07-31T05:49:14;17.30;99.90
24412;DHT22;12544;46.760;15.942;2023-07-31T05:51:39;17.40;99.90
24412;DHT22;12544;46.760;15.942;2023-07-31T05:54:05;17.50;99.90
24412;DHT22;12544;46.760;15.942;2023-07-31T05:56:30;17.50;99.90
24412;DHT22;12544;46.760;15.942;2023-07-31T05:58:57;17.60;99.90
24412;DHT22;12544;46.760;15.942;2023-07-31T06:01:22;17.60;99.90
24412;DHT22;12544;46.760;15.942;2023-07-31T06:03:48;17.70;99.90
24412;DHT22;12544;46.760;15.942;2023-07-31T06:06:13;17.70;99.90
24412;DHT22;12544;46.760;15.942;2023-07-31T06:08:39;17.80;99.90
24412;DHT22;12544;46.760;15.942;2023-07-31T06:11:05;17.90;99.90
24412;DHT22;12544;46.760;15.942;2023-07-31T06:13:31;17.90;99.90
24412;DHT22;12544;46.760;15.942;2023-07-31T06:15:57;18.00;99.90
24412;DHT22;12544;46.760;15.942;2023-07-31T06:18:22;18.10;99.90
24412;DHT22;12544;46.760;15.942;2023-07-31T06:20:48;18.10;99.90
24412;DHT22;12544;46.760;15.942;2023-07-31T06:23:19;18.10;99.90
24412;DHT22;12544;46.760;15.942;2023-07-31T06:25:44;18.20;99.90
24412;DHT22;12544;46.760;15.942;2023-07-31T06:28:10;18.20;99.90
24412;DHT22;12544;46.760;15.942;2023-07-31T06:30:36;18.30;99.90
24412;DHT22;12544;46.760;15.942;2023-07-31T06:33:01;18.40;99.90
24412;DHT22;12544;46.760;15.942;2023-07-31T06:35:27;18.40;99.90
24412;DHT22;12544;46.760;15.942;2023-07-31T06:37:52;18.40;99.90
24412;DHT22;12544;46.760;15.942;2023-07-31T06:40:18;18.50;99.90
24412;DHT22;12544;46.760;15.942;2023-07-31T06:42:44;18.50;99.90
24412;DHT22;12544;46.760;15.942;2023-07-31T06:45:10;18.60;99.90
24412;DHT22;12544;46.760;15.942;2023-07-31T06:47:36;18.70;99.90
24412;DHT22;12544;46.760;15.942;2023-07-31T06:50:01;18.80;99.90
24412;DHT22;12544;46.760;15.942;2023-07-31T06:52:27;18.90;99.90
24412;DHT22;12544;46.760;15.942;2023-07-31T06:55:04;19.00;99.90
24412;DHT22;12544;46.760;15.942;2023-07-31T06:57:30;19.10;99.90
24412;DHT22;12544;46.760;15.942;2023-07-31T06:59:58;19.20;99.90
24412;DHT22;12544;46.760;15.942;2023-07-31T07:02:24;19.20;99.90
24412;DHT22;12544;46.760;15.942;2023-07-31T07:04:49;19.20;99.90
24412;DHT22;12544;46.760;15.942;2023-07-31T07:07:15;19.20;99.90
24412;DHT22;12544;46.760;15.942;2023-07-31T07:09:41;19.40;99.90
24412;DHT22;12544;46.760;15.942;2023-07-31T07:12:07;19.50;99.90
24412;DHT22;12544;46.760;15.942;2023-07-31T07:14:32;19.60;99.90
24412;DHT22;12544;46.760;15.942;2023-07-31T07:16:58;19.60;99.90
24412;DHT22;12544;46.760;15.942;2023-07-31T07:19:24;19.70;99.90
24412;DHT22;12544;46.760;15.942;2023-07-31T07:21:49;19.80;99.90
24412;DHT22;12544;46.760;15.942;2023-07-31T07:24:15;19.80;99.90
24412;DHT22;12544;46.760;15.942;2023-07-31T07:26:41;20.00;99.90
24412;DHT22;12544;46.760;15.942;2023-07-31T07:29:07;20.00;99.90
24412;DHT22;12544;46.760;15.942;2023-07-31T07:31:33;20.10;99.90
24412;DHT22;12544;46.760;15.942;2023-07-31T07:33:58;20.20;99.90
24412;DHT22;12544;46.760;15.942;2023-07-31T07:36:24;20.30;99.90
24412;DHT22;12544;46.760;15.942;2023-07-31T07:38:50;20.40;99.90
24412;DHT22;12544;46.760;15.942;2023-07-31T07:41:15;20.40;99.90
24412;DHT22;12544;46.760;15.942;2023-07-31T07:43:41;20.40;99.90
24412;DHT22;12544;46.760;15.942;2023-07-31T07:46:06;20.50;99.90
24412;DHT22;12544;46.760;15.942;2023-07-31T07:48:32;20.50;99.90
24412;DHT22;12544;46.760;15.942;2023-07-31T07:50:57;20.50;99.90
24412;DHT22;12544;46.760;15.942;2023-07-31T07:53:23;20.60;99.90
24412;DHT22;12544;46.760;15.942;2023-07-31T07:55:49;20.70;99.90
24412;DHT22;12544;46.760;15.942;2023-07-31T07:58:14;20.80;99.90
24412;DHT22;12544;46.760;15.942;2023-07-31T08:00:41;20.80;99.90
24412;DHT22;12544;46.760;15.942;2023-07-31T08:03:06;20.80;99.90
24412;DHT22;12544;46.760;15.942;2023-07-31T08:05:32;20.90;99.90
24412;DHT22;12544;46.760;15.942;2023-07-31T08:07:59;21.00;99.90
24412;DHT22;12544;46.760;15.942;2023-07-31T08:10:25;21.10;99.90
24412;DHT22;12544;46.760;15.942;2023-07-31T08:12:50;21.20;99.90
24412;DHT22;12544;46.760;15.942;2023-07-31T08:15:16;21.30;99.90
24412;DHT22;12544;46.760;15.942;2023-07-31T08:17:41;21.40;99.90
24412;DHT22;12544;46.760;15.942;2023-07-31T08:20:08;21.40;99.90
24412;DHT22;12544;46.760;15.942;2023-07-31T08:22:37;21.50;99.90
24412;DHT22;12544;46.760;15.942;2023-07-31T08:25:03;21.60;99.90
24412;DHT22;12544;46.760;15.942;2023-07-31T08:27:29;21.70;99.90
24412;DHT22;12544;46.760;15.942;2023-07-31T08:29:55;21.80;99.90
24412;DHT22;12544;46.760;15.942;2023-07-31T08:32:20;21.90;99.90
24412;DHT22;12544;46.760;15.942;2023-07-31T08:34:46;22.00;99.90
24412;DHT22;12544;46.760;15.942;2023-07-31T08:37:11;22.00;99.90
24412;DHT22;12544;46.760;15.942;2023-07-31T08:39:37;22.10;99.90
24412;DHT22;12544;46.760;15.942;2023-07-31T08:42:08;22.10;99.90
24412;DHT22;12544;46.760;15.942;2023-07-31T08:44:34;22.20;99.90
24412;DHT22;12544;46.760;15.942;2023-07-31T08:47:01;22.30;99.90
24412;DHT22;12544;46.760;15.942;2023-07-31T08:49:27;22.30;99.90
24412;DHT22;12544;46.760;15.942;2023-07-31T08:51:55;22.30;99.90
24412;DHT22;12544;46.760;15.942;2023-07-31T08:54:23;22.40;99.90
24412;DHT22;12544;46.760;15.942;2023-07-31T08:56:49;22.50;99.90
24412;DHT22;12544;46.760;15.942;2023-07-31T08:59:18;22.50;99.90
24412;DHT22;12544;46.760;15.942;2023-07-31T09:01:49;22.60;99.90
24412;DHT22;12544;46.760;15.942;2023-07-31T09:04:16;22.60;99.90
24412;DHT22;12544;46.760;15.942;2023-07-31T09:06:44;22.70;99.90
24412;DHT22;12544;46.760;15.942;2023-07-31T09:09:10;22.70;99.90
24412;DHT22;12544;46.760;15.942;2023-07-31T09:11:35;22.80;99.90
24412;DHT22;12544;46.760;15.942;2023-07-31T09:14:02;22.90;99.90
24412;DHT22;12544;46.760;15.942;2023-07-31T09:16:34;22.90;99.90
24412;DHT22;12544;46.760;15.942;2023-07-31T09:18:59;23.00;99.90
24412;DHT22;12544;46.760;15.942;2023-07-31T09:21:27;22.90;99.90
24412;DHT22;12544;46.760;15.942;2023-07-31T09:23:54;23.00;99.90
24412;DHT22;12544;46.760;15.942;2023-07-31T09:26:30;23.20;99.90
24412;DHT22;12544;46.760;15.942;2023-07-31T09:28:57;23.30;99.90
24412;DHT22;12544;46.760;15.942;2023-07-31T09:33:58;23.50;99.90
24412;DHT22;12544;46.760;15.942;2023-07-31T09:36:28;23.60;99.90
24412;DHT22;12544;46.760;15.942;2023-07-31T09:38:54;23.60;99.90
24412;DHT22;12544;46.760;15.942;2023-07-31T09:41:19;23.60;99.90
24412;DHT22;12544;46.760;15.942;2023-07-31T09:43:53;23.60;99.90
24412;DHT22;12544;46.760;15.942;2023-07-31T09:46:21;23.70;99.90
24412;DHT22;12544;46.760;15.942;2023-07-31T09:48:47;23.80;99.90
24412;DHT22;12544;46.760;15.942;2023-07-31T09:51:13;23.90;99.90
24412;DHT22;12544;46.760;15.942;2023-07-31T09:53:38;23.90;99.90
24412;DHT22;12544;46.760;15.942;2023-07-31T09:56:05;24.00;99.90
24412;DHT22;12544;46.760;15.942;2023-07-31T09:58:34;24.00;99.90
24412;DHT22;12544;46.760;15.942;2023-07-31T10:01:02;24.10;99.90
24412;DHT22;12544;46.760;15.942;2023-07-31T10:03:29;24.10;99.90
24412;DHT22;12544;46.760;15.942;2023-07-31T10:05:57;24.30;99.90
24412;DHT22;12544;46.760;15.942;2023-07-31T10:08:28;24.40;99.90
24412;DHT22;12544;46.760;15.942;2023-07-31T10:10:58;24.40;99.90
24412;DHT22;12544;46.760;15.942;2023-07-31T10:13:25;24.60;99.90
24412;DHT22;12544;46.760;15.942;2023-07-31T10:15:53;24.70;99.90
24412;DHT22;12544;46.760;15.942;2023-07-31T10:18:20;24.70;99.90
24412;DHT22;12544;46.760;15.942;2023-07-31T10:20:46;24.70;99.90
24412;DHT22;12544;46.760;15.942;2023-07-31T10:23:12;24.70;99.90
24412;DHT22;12544;46.760;15.942;2023-07-31T10:25:39;24.80;99.90
24412;DHT22;12544;46.760;15.942;2023-07-31T10:28:05;24.70;99.90
24412;DHT22;12544;46.760;15.942;2023-07-31T10:30:32;24.80;99.90
24412;DHT22;12544;46.760;15.942;2023-07-31T10:32:59;24.90;99.90
24412;DHT22;12544;46.760;15.942;2023-07-31T10:35:25;25.00;99.90
24412;DHT22;12544;46.760;15.942;2023-07-31T10:37:51;25.20;99.90
24412;DHT22;12544;46.760;15.942;2023-07-31T10:40:19;25.10;99.90
24412;DHT22;12544;46.760;15.942;2023-07-31T10:42:49;25.20;99.90
24412;DHT22;12544;46.760;15.942;2023-07-31T10:45:30;25.20;99.90
24412;DHT22;12544;46.760;15.942;2023-07-31T10:50:29;25.40;99.90
24412;DHT22;12544;46.760;15.942;2023-07-31T10:52:56;25.50;99.90
24412;DHT22;12544;46.760;15.942;2023-07-31T10:55:31;25.60;99.90
24412;DHT22;12544;46.760;15.942;2023-07-31T10:58:11;25.70;99.90
24412;DHT22;12544;46.760;15.942;2023-07-31T11:00:39;25.80;99.90
24412;DHT22;12544;46.760;15.942;2023-07-31T11:03:17;25.80;99.90
24412;DHT22;12544;46.760;15.942;2023-07-31T11:11:38;25.90;99.90
24412;DHT22;12544;46.760;15.942;2023-07-31T11:14:03;26.10;99.90
24412;DHT22;12544;46.760;15.942;2023-07-31T11:16:29;26.30;99.90
24412;DHT22;12544;46.760;15.942;2023-07-31T11:18:54;26.30;99.90
24412;DHT22;12544;46.760;15.942;2023-07-31T11:21:22;26.20;99.90
24412;DHT22;12544;46.760;15.942;2023-07-31T11:23:50;26.30;99.90
24412;DHT22;12544;46.760;15.942;2023-07-31T11:26:16;26.40;99.90
24412;DHT22;12544;46.760;15.942;2023-07-31T11:28:42;26.40;99.90
24412;DHT22;12544;46.760;15.942;2023-07-31T11:31:10;26.50;99.90
24412;DHT22;12544;46.760;15.942;2023-07-31T11:33:36;26.50;99.90
24412;DHT22;12544;46.760;15.942;2023-07-31T11:36:02;26.40;99.90
24412;DHT22;12544;46.760;15.942;2023-07-31T11:38:30;26.60;99.90
24412;DHT22;12544;46.760;15.942;2023-07-31T11:40:58;26.70;99.90
24412;DHT22;12544;46.760;15.942;2023-07-31T11:43:25;26.80;99.90
24412;DHT22;12544;46.760;15.942;2023-07-31T11:45:54;26.90;99.90
24412;DHT22;12544;46.760;15.942;2023-07-31T11:48:31;26.90;99.90
24412;DHT22;12544;46.760;15.942;2023-07-31T11:51:00;27.10;99.90
24412;DHT22;12544;46.760;15.942;2023-07-31T11:53:36;27.00;99.90
24412;DHT22;12544;46.760;15.942;2023-07-31T11:56:03;27.30;99.90
24412;DHT22;12544;46.760;15.942;2023-07-31T11:58:34;27.40;99.90
24412;DHT22;12544;46.760;15.942;2023-07-31T12:01:00;27.40;99.90
24412;DHT22;12544;46.760;15.942;2023-07-31T12:03:26;27.30;99.90
24412;DHT22;12544;46.760;15.942;2023-07-31T12:05:53;27.30;99.90
24412;DHT22;12544;46.760;15.942;2023-07-31T12:08:21;27.30;99.90
24412;DHT22;12544;46.760;15.942;2023-07-31T12:10:50;27.30;99.90
24412;DHT22;12544;46.760;15.942;2023-07-31T12:13:24;27.40;99.90
24412;DHT22;12544;46.760;15.942;2023-07-31T12:15:54;27.40;99.90
24412;DHT22;12544;46.760;15.942;2023-07-31T12:18:22;27.40;99.90
24412;DHT22;12544;46.760;15.942;2023-07-31T12:20:49;27.30;99.90
24412;DHT22;12544;46.760;15.942;2023-07-31T12:23:21;27.30;99.90
24412;DHT22;12544;46.760;15.942;2023-07-31T12:26:13;27.40;99.90
24412;DHT22;12544;46.760;15.942;2023-07-31T12:28:44;27.40;99.90
24412;DHT22;12544;46.760;15.942;2023-07-31T12:31:12;27.50;99.90
24412;DHT22;12544;46.760;15.942;2023-07-31T12:33:38;27.50;99.90
24412;DHT22;12544;46.760;15.942;2023-07-31T12:36:10;27.50;99.90
24412;DHT22;12544;46.760;15.942;2023-07-31T12:38:36;27.60;99.90
24412;DHT22;12544;46.760;15.942;2023-07-31T12:41:02;27.40;99.90
24412;DHT22;12544;46.760;15.942;2023-07-31T12:43:27;27.10;99.90
24412;DHT22;12544;46.760;15.942;2023-07-31T12:45:54;26.80;99.90
24412;DHT22;12544;46.760;15.942;2023-07-31T12:48:21;26.70;99.90
24412;DHT22;12544;46.760;15.942;2023-07-31T12:50:47;26.60;99.90
24412;DHT22;12544;46.760;15.942;2023-07-31T12:53:12;26.50;99.90
24412;DHT22;12544;46.760;15.942;2023-07-31T12:55:38;26.50;99.90
24412;DHT22;12544;46.760;15.942;2023-07-31T12:58:04;26.70;99.90
24412;DHT22;12544;46.760;15.942;2023-07-31T13:00:29;26.90;99.90
24412;DHT22;12544;46.760;15.942;2023-07-31T13:02:55;27.20;99.90
24412;DHT22;12544;46.760;15.942;2023-07-31T13:05:21;27.20;99.90
24412;DHT22;12544;46.760;15.942;2023-07-31T13:07:47;27.10;99.90
24412;DHT22;12544;46.760;15.942;2023-07-31T13:10:13;26.80;99.90
24412;DHT22;12544;46.760;15.942;2023-07-31T13:12:38;26.50;99.90
24412;DHT22;12544;46.760;15.942;2023-07-31T13:15:07;26.50;99.90
24412;DHT22;12544;46.760;15.942;2023-07-31T13:17:32;26.70;99.90
24412;DHT22;12544;46.760;15.942;2023-07-31T13:19:58;26.60;99.90
24412;DHT22;12544;46.760;15.942;2023-07-31T13:22:24;26.50;99.90
24412;DHT22;12544;46.760;15.942;2023-07-31T13:24:50;26.60;99.90
24412;DHT22;12544;46.760;15.942;2023-07-31T13:27:15;26.60;99.90
24412;DHT22;12544;46.760;15.942;2023-07-31T13:29:46;26.60;99.90
24412;DHT22;12544;46.760;15.942;2023-07-31T13:32:12;26.50;99.90
24412;DHT22;12544;46.760;15.942;2023-07-31T13:34:38;26.30;99.90
24412;DHT22;12544;46.760;15.942;2023-07-31T13:37:03;26.20;99.90
24412;DHT22;12544;46.760;15.942;2023-07-31T13:39:31;26.20;99.90
24412;DHT22;12544;46.760;15.942;2023-07-31T13:41:57;26.30;99.90
24412;DHT22;12544;46.760;15.942;2023-07-31T13:44:23;26.60;99.90
24412;DHT22;12544;46.760;15.942;2023-07-31T13:46:48;26.80;99.90
24412;DHT22;12544;46.760;15.942;2023-07-31T13:49:14;27.00;99.90
24412;DHT22;12544;46.760;15.942;2023-07-31T13:51:40;27.30;99.90
24412;DHT22;12544;46.760;15.942;2023-07-31T13:54:05;27.70;99.90
24412;DHT22;12544;46.760;15.942;2023-07-31T13:56:34;28.10;99.90
24412;DHT22;12544;46.760;15.942;2023-07-31T13:59:00;28.30;99.90
24412;DHT22;12544;46.760;15.942;2023-07-31T14:01:27;28.30;99.90
24412;DHT22;12544;46.760;15.942;2023-07-31T14:03:52;28.60;99.90
24412;DHT22;12544;46.760;15.942;2023-07-31T14:06:19;28.70;99.90
24412;DHT22;12544;46.760;15.942;2023-07-31T14:08:44;28.60;99.90
24412;DHT22;12544;46.760;15.942;2023-07-31T14:11:10;28.70;99.90
24412;DHT22;12544;46.760;15.942;2023-07-31T14:13:35;28.60;99.90
24412;DHT22;12544;46.760;15.942;2023-07-31T14:16:01;28.60;99.30
24412;DHT22;12544;46.760;15.942;2023-07-31T14:18:27;28.70;99.60
24412;DHT22;12544;46.760;15.942;2023-07-31T14:20:52;28.60;99.50
24412;DHT22;12544;46.760;15.942;2023-07-31T14:23:18;28.60;99.40
24412;DHT22;12544;46.760;15.942;2023-07-31T14:25:47;28.60;99.90
24412;DHT22;12544;46.760;15.942;2023-07-31T14:28:12;28.50;99.80
24412;DHT22;12544;46.760;15.942;2023-07-31T14:30:38;28.50;99.50
24412;DHT22;12544;46.760;15.942;2023-07-31T14:33:04;28.30;99.90
24412;DHT22;12544;46.760;15.942;2023-07-31T14:35:29;28.40;99.70
24412;DHT22;12544;46.760;15.942;2023-07-31T14:37:55;28.40;99.20
24412;DHT22;12544;46.760;15.942;2023-07-31T14:40:21;28.30;99.90
24412;DHT22;12544;46.760;15.942;2023-07-31T14:42:46;28.40;99.20
24412;DHT22;12544;46.760;15.942;2023-07-31T14:45:12;28.30;99.70
24412;DHT22;12544;46.760;15.942;2023-07-31T14:47:37;28.40;99.30
24412;DHT22;12544;46.760;15.942;2023-07-31T14:50:03;28.50;99.90
24412;DHT22;12544;46.760;15.942;2023-07-31T14:52:29;28.50;99.80
24412;DHT22;12544;46.760;15.942;2023-07-31T14:54:55;28.60;99.90
24412;DHT22;12544;46.760;15.942;2023-07-31T14:57:21;28.50;99.90
24412;DHT22;12544;46.760;15.942;2023-07-31T14:59:47;28.40;99.50
24412;DHT22;12544;46.760;15.942;2023-07-31T15:02:14;28.40;99.20
24412;DHT22;12544;46.760;15.942;2023-07-31T15:04:40;28.40;99.70
24412;DHT22;12544;46.760;15.942;2023-07-31T15:07:05;28.40;99.90
24412;DHT22;12544;46.760;15.942;2023-07-31T15:09:31;28.40;98.80
24412;DHT22;12544;46.760;15.942;2023-07-31T15:11:57;28.30;99.90
24412;DHT22;12544;46.760;15.942;2023-07-31T15:14:23;28.40;99.40
24412;DHT22;12544;46.760;15.942;2023-07-31T15:16:49;28.70;99.40
24412;DHT22;12544;46.760;15.942;2023-07-31T15:19:15;28.70;99.30
24412;DHT22;12544;46.760;15.942;2023-07-31T15:21:40;28.60;99.10
24412;DHT22;12544;46.760;15.942;2023-07-31T15:24:06;28.70;99.50
24412;DHT22;12544;46.760;15.942;2023-07-31T15:26:32;28.60;99.60
24412;DHT22;12544;46.760;15.942;2023-07-31T15:29:03;28.60;99.90